sensor_id;sensor_type;location;lat;lon;timestamp;P1;durP1;ratioP1;P2;durP2;ratioP2
76604;SDS011;73179;50.978;16.998;2024-03-02T00:01:30;166.77;;;92.70;;
76604;SDS011;73179;50.978;16.998;2024-03-02T00:03:56;164.15;;;92.13;;
76604;SDS011;73179;50.978;16.998;2024-03-02T00:06:21;164.73;;;87.70;;
76604;SDS011;73179;50.978;16.998;2024-03-02T00:08:47;159.43;;;84.90;;
76604;SDS011;73179;50.978;16.998;2024-03-02T00:11:13;165.88;;;90.07;;
76604;SDS011;73179;50.978;16.998;2024-03-02T00:13:41;158.52;;;88.22;;
76604;SDS011;73179;50.978;16.998;2024-03-02T00:16:06;176.23;;;90.70;;
76604;SDS011;73179;50.978;16.998;2024-03-02T00:18:33;176.43;;;91.93;;
76604;SDS011;73179;50.978;16.998;2024-03-02T00:21:00;163.80;;;89.53;;
76604;SDS011;73179;50.978;16.998;2024-03-02T00:23:27;169.30;;;88.30;;
76604;SDS011;73179;50.978;16.998;2024-03-02T00:25:57;171.55;;;90.97;;
76604;SDS011;73179;50.978;16.998;2024-03-02T00:28:24;169.68;;;91.80;;
76604;SDS011;73179;50.978;16.998;2024-03-02T00:33:43;166.27;;;87.88;;
76604;SDS011;73179;50.978;16.998;2024-03-02T00:36:17;156.45;;;84.80;;
76604;SDS011;73179;50.978;16.998;2024-03-02T00:38:51;160.60;;;86.50;;
76604;SDS011;73179;50.978;16.998;2024-03-02T00:41:27;157.02;;;92.78;;
76604;SDS011;73179;50.978;16.998;2024-03-02T00:46:27;156.35;;;85.70;;
76604;SDS011;73179;50.978;16.998;2024-03-02T00:48:59;169.25;;;87.50;;
76604;SDS011;73179;50.978;16.998;2024-03-02T00:51:27;160.52;;;86.65;;
76604;SDS011;73179;50.978;16.998;2024-03-02T00:53:55;151.65;;;87.28;;
76604;SDS011;73179;50.978;16.998;2024-03-02T00:56:23;150.93;;;85.20;;
76604;SDS011;73179;50.978;16.998;2024-03-02T00:58:50;156.75;;;90.25;;
76604;SDS011;73179;50.978;16.998;2024-03-02T01:01:16;154.60;;;86.65;;
76604;SDS011;73179;50.978;16.998;2024-03-02T01:03:43;151.50;;;85.85;;
76604;SDS011;73179;50.978;16.998;2024-03-02T01:06:09;159.52;;;83.93;;
76604;SDS011;73179;50.978;16.998;2024-03-02T01:08:35;151.82;;;81.95;;
76604;SDS011;73179;50.978;16.998;2024-03-02T01:11:01;152.20;;;80.88;;
76604;SDS011;73179;50.978;16.998;2024-03-02T01:13:28;145.77;;;77.88;;
76604;SDS011;73179;50.978;16.998;2024-03-02T01:15:53;138.02;;;74.90;;
76604;SDS011;73179;50.978;16.998;2024-03-02T01:18:19;141.57;;;74.20;;
76604;SDS011;73179;50.978;16.998;2024-03-02T01:20:45;152.65;;;80.32;;
76604;SDS011;73179;50.978;16.998;2024-03-02T01:23:11;152.20;;;78.20;;
76604;SDS011;73179;50.978;16.998;2024-03-02T01:25:37;152.02;;;75.95;;
76604;SDS011;73179;50.978;16.998;2024-03-02T01:28:03;148.95;;;76.43;;
76604;SDS011;73179;50.978;16.998;2024-03-02T01:30:29;155.57;;;81.30;;
76604;SDS011;73179;50.978;16.998;2024-03-02T01:32:55;161.40;;;83.38;;
76604;SDS011;73179;50.978;16.998;2024-03-02T01:35:21;153.35;;;83.75;;
76604;SDS011;73179;50.978;16.998;2024-03-02T01:37:47;156.10;;;82.07;;
76604;SDS011;73179;50.978;16.998;2024-03-02T01:40:12;160.95;;;85.25;;
76604;SDS011;73179;50.978;16.998;2024-03-02T01:42:39;167.57;;;84.90;;
76604;SDS011;73179;50.978;16.998;2024-03-02T01:45:08;161.90;;;93.72;;
76604;SDS011;73179;50.978;16.998;2024-03-02T01:47:35;157.98;;;85.65;;
76604;SDS011;73179;50.978;16.998;2024-03-02T01:50:01;149.20;;;84.15;;
76604;SDS011;73179;50.978;16.998;2024-03-02T01:52:27;153.57;;;86.30;;
76604;SDS011;73179;50.978;16.998;2024-03-02T01:54:53;149.50;;;78.97;;
76604;SDS011;73179;50.978;16.998;2024-03-02T01:57:19;149.30;;;80.68;;
76604;SDS011;73179;50.978;16.998;2024-03-02T01:59:46;142.82;;;80.82;;
76604;SDS011;73179;50.978;16.998;2024-03-02T02:02:14;147.23;;;75.20;;
76604;SDS011;73179;50.978;16.998;2024-03-02T02:04:40;137.10;;;78.95;;
76604;SDS011;73179;50.978;16.998;2024-03-02T02:07:06;139.15;;;80.32;;
76604;SDS011;73179;50.978;16.998;2024-03-02T02:09:32;137.25;;;80.20;;
76604;SDS011;73179;50.978;16.998;2024-03-02T02:11:58;142.35;;;78.72;;
76604;SDS011;73179;50.978;16.998;2024-03-02T02:14:24;145.05;;;79.72;;
76604;SDS011;73179;50.978;16.998;2024-03-02T02:16:50;141.85;;;79.63;;
76604;SDS011;73179;50.978;16.998;2024-03-02T02:19:17;145.05;;;78.93;;
76604;SDS011;73179;50.978;16.998;2024-03-02T02:21:43;145.32;;;80.15;;
76604;SDS011;73179;50.978;16.998;2024-03-02T02:24:09;148.27;;;83.60;;
76604;SDS011;73179;50.978;16.998;2024-03-02T02:26:35;150.40;;;80.72;;
76604;SDS011;73179;50.978;16.998;2024-03-02T02:29:01;156.43;;;84.70;;
76604;SDS011;73179;50.978;16.998;2024-03-02T02:31:27;154.15;;;85.25;;
76604;SDS011;73179;50.978;16.998;2024-03-02T02:33:52;146.68;;;83.47;;
76604;SDS011;73179;50.978;16.998;2024-03-02T02:36:18;157.20;;;86.82;;
76604;SDS011;73179;50.978;16.998;2024-03-02T02:38:44;153.60;;;82.88;;
76604;SDS011;73179;50.978;16.998;2024-03-02T02:41:13;145.02;;;81.22;;
76604;SDS011;73179;50.978;16.998;2024-03-02T02:43:39;154.13;;;82.60;;
76604;SDS011;73179;50.978;16.998;2024-03-02T02:46:05;150.93;;;77.72;;
76604;SDS011;73179;50.978;16.998;2024-03-02T02:48:31;149.05;;;79.85;;
76604;SDS011;73179;50.978;16.998;2024-03-02T02:50:57;147.15;;;79.38;;
76604;SDS011;73179;50.978;16.998;2024-03-02T02:53:23;150.93;;;79.60;;
76604;SDS011;73179;50.978;16.998;2024-03-02T02:55:49;149.82;;;80.20;;
76604;SDS011;73179;50.978;16.998;2024-03-02T02:58:15;153.13;;;87.47;;
76604;SDS011;73179;50.978;16.998;2024-03-02T03:00:41;161.20;;;86.88;;
76604;SDS011;73179;50.978;16.998;2024-03-02T03:03:06;163.02;;;83.60;;
76604;SDS011;73179;50.978;16.998;2024-03-02T03:05:32;174.07;;;85.90;;
76604;SDS011;73179;50.978;16.998;2024-03-02T03:07:58;156.52;;;81.85;;
76604;SDS011;73179;50.978;16.998;2024-03-02T03:10:24;161.23;;;87.05;;
76604;SDS011;73179;50.978;16.998;2024-03-02T03:12:52;141.20;;;78.57;;
76604;SDS011;73179;50.978;16.998;2024-03-02T03:15:18;145.18;;;80.05;;
76604;SDS011;73179;50.978;16.998;2024-03-02T03:17:44;151.18;;;78.32;;
76604;SDS011;73179;50.978;16.998;2024-03-02T03:20:11;151.93;;;81.78;;
76604;SDS011;73179;50.978;16.998;2024-03-02T03:22:40;144.85;;;83.75;;
76604;SDS011;73179;50.978;16.998;2024-03-02T03:25:06;137.32;;;77.88;;
76604;SDS011;73179;50.978;16.998;2024-03-02T03:27:35;145.00;;;78.03;;
76604;SDS011;73179;50.978;16.998;2024-03-02T03:30:02;143.45;;;81.07;;
76604;SDS011;73179;50.978;16.998;2024-03-02T03:32:28;138.80;;;76.90;;
76604;SDS011;73179;50.978;16.998;2024-03-02T03:34:54;141.43;;;78.00;;
76604;SDS011;73179;50.978;16.998;2024-03-02T03:37:19;136.57;;;79.60;;
76604;SDS011;73179;50.978;16.998;2024-03-02T03:39:46;140.70;;;79.68;;
76604;SDS011;73179;50.978;16.998;2024-03-02T03:42:11;143.48;;;78.00;;
76604;SDS011;73179;50.978;16.998;2024-03-02T03:44:37;136.20;;;78.22;;
76604;SDS011;73179;50.978;16.998;2024-03-02T03:47:04;131.27;;;72.03;;
76604;SDS011;73179;50.978;16.998;2024-03-02T03:49:30;135.80;;;72.68;;
76604;SDS011;73179;50.978;16.998;2024-03-02T03:51:56;133.45;;;75.38;;
76604;SDS011;73179;50.978;16.998;2024-03-02T03:54:21;122.03;;;71.40;;
76604;SDS011;73179;50.978;16.998;2024-03-02T03:56:47;131.80;;;68.65;;
76604;SDS011;73179;50.978;16.998;2024-03-02T03:59:13;127.93;;;66.90;;
76604;SDS011;73179;50.978;16.998;2024-03-02T04:01:39;125.85;;;65.28;;
76604;SDS011;73179;50.978;16.998;2024-03-02T04:04:04;120.88;;;67.03;;
76604;SDS011;73179;50.978;16.998;2024-03-02T04:06:30;116.47;;;61.80;;
76604;SDS011;73179;50.978;16.998;2024-03-02T04:08:56;118.13;;;61.38;;
76604;SDS011;73179;50.978;16.998;2024-03-02T04:11:22;123.15;;;67.80;;
76604;SDS011;73179;50.978;16.998;2024-03-02T04:13:48;111.90;;;61.38;;
76604;SDS011;73179;50.978;16.998;2024-03-02T04:16:14;117.18;;;64.82;;
76604;SDS011;73179;50.978;16.998;2024-03-02T04:18:40;119.93;;;63.95;;
76604;SDS011;73179;50.978;16.998;2024-03-02T04:21:06;114.97;;;65.10;;
76604;SDS011;73179;50.978;16.998;2024-03-02T04:23:32;122.03;;;63.80;;
76604;SDS011;73179;50.978;16.998;2024-03-02T04:25:58;120.75;;;68.93;;
76604;SDS011;73179;50.978;16.998;2024-03-02T04:28:24;120.45;;;69.38;;
76604;SDS011;73179;50.978;16.998;2024-03-02T04:30:50;120.05;;;65.05;;
76604;SDS011;73179;50.978;16.998;2024-03-02T04:33:16;116.97;;;64.22;;
76604;SDS011;73179;50.978;16.998;2024-03-02T04:35:42;124.28;;;68.88;;
76604;SDS011;73179;50.978;16.998;2024-03-02T04:38:07;120.40;;;63.20;;
76604;SDS011;73179;50.978;16.998;2024-03-02T04:40:33;116.00;;;63.60;;
76604;SDS011;73179;50.978;16.998;2024-03-02T04:42:59;116.57;;;63.65;;
76604;SDS011;73179;50.978;16.998;2024-03-02T04:45:25;108.70;;;59.88;;
76604;SDS011;73179;50.978;16.998;2024-03-02T04:47:51;117.82;;;63.78;;
76604;SDS011;73179;50.978;16.998;2024-03-02T04:50:17;112.15;;;61.10;;
76604;SDS011;73179;50.978;16.998;2024-03-02T04:52:42;113.13;;;63.33;;
76604;SDS011;73179;50.978;16.998;2024-03-02T04:55:08;118.40;;;63.08;;
76604;SDS011;73179;50.978;16.998;2024-03-02T04:57:52;129.80;;;63.03;;
76604;SDS011;73179;50.978;16.998;2024-03-02T05:00:20;117.82;;;64.18;;
76604;SDS011;73179;50.978;16.998;2024-03-02T05:02:46;117.93;;;62.90;;
76604;SDS011;73179;50.978;16.998;2024-03-02T05:05:12;114.95;;;63.90;;
76604;SDS011;73179;50.978;16.998;2024-03-02T05:07:38;114.15;;;65.53;;
76604;SDS011;73179;50.978;16.998;2024-03-02T05:10:04;110.32;;;63.60;;
76604;SDS011;73179;50.978;16.998;2024-03-02T05:12:30;117.45;;;64.18;;
76604;SDS011;73179;50.978;16.998;2024-03-02T05:15:12;115.00;;;64.57;;
76604;SDS011;73179;50.978;16.998;2024-03-02T05:17:39;121.03;;;67.22;;
76604;SDS011;73179;50.978;16.998;2024-03-02T05:20:08;123.00;;;63.20;;
76604;SDS011;73179;50.978;16.998;2024-03-02T05:22:35;117.38;;;62.25;;
76604;SDS011;73179;50.978;16.998;2024-03-02T05:25:02;115.90;;;64.13;;
76604;SDS011;73179;50.978;16.998;2024-03-02T05:27:29;125.47;;;68.72;;
76604;SDS011;73179;50.978;16.998;2024-03-02T05:29:56;118.32;;;62.72;;
76604;SDS011;73179;50.978;16.998;2024-03-02T05:32:21;111.35;;;60.80;;
76604;SDS011;73179;50.978;16.998;2024-03-02T05:34:47;114.35;;;60.30;;
76604;SDS011;73179;50.978;16.998;2024-03-02T05:37:13;122.93;;;63.53;;
76604;SDS011;73179;50.978;16.998;2024-03-02T05:39:39;116.50;;;64.90;;
76604;SDS011;73179;50.978;16.998;2024-03-02T05:42:05;116.82;;;62.40;;
76604;SDS011;73179;50.978;16.998;2024-03-02T05:44:31;116.70;;;64.22;;
76604;SDS011;73179;50.978;16.998;2024-03-02T05:46:57;125.82;;;64.35;;
76604;SDS011;73179;50.978;16.998;2024-03-02T05:49:23;116.78;;;67.60;;
76604;SDS011;73179;50.978;16.998;2024-03-02T05:51:49;124.95;;;70.55;;
76604;SDS011;73179;50.978;16.998;2024-03-02T05:54:15;137.75;;;70.75;;
76604;SDS011;73179;50.978;16.998;2024-03-02T05:56:41;130.02;;;67.88;;
76604;SDS011;73179;50.978;16.998;2024-03-02T05:59:07;132.75;;;67.20;;
76604;SDS011;73179;50.978;16.998;2024-03-02T06:01:39;126.07;;;66.93;;
76604;SDS011;73179;50.978;16.998;2024-03-02T06:04:06;116.78;;;64.25;;
76604;SDS011;73179;50.978;16.998;2024-03-02T06:06:32;117.18;;;63.60;;
76604;SDS011;73179;50.978;16.998;2024-03-02T06:08:59;116.47;;;62.97;;
76604;SDS011;73179;50.978;16.998;2024-03-02T06:11:39;118.60;;;63.35;;
76604;SDS011;73179;50.978;16.998;2024-03-02T06:14:06;117.63;;;60.47;;
76604;SDS011;73179;50.978;16.998;2024-03-02T06:16:33;130.57;;;61.38;;
76604;SDS011;73179;50.978;16.998;2024-03-02T06:18:59;114.53;;;61.00;;
76604;SDS011;73179;50.978;16.998;2024-03-02T06:21:26;110.18;;;59.40;;
76604;SDS011;73179;50.978;16.998;2024-03-02T06:23:53;122.95;;;60.35;;
76604;SDS011;73179;50.978;16.998;2024-03-02T06:26:19;120.43;;;63.40;;
76604;SDS011;73179;50.978;16.998;2024-03-02T06:28:45;119.72;;;63.05;;
76604;SDS011;73179;50.978;16.998;2024-03-02T06:31:11;117.30;;;62.50;;
76604;SDS011;73179;50.978;16.998;2024-03-02T06:33:38;111.85;;;58.08;;
76604;SDS011;73179;50.978;16.998;2024-03-02T06:36:04;111.22;;;59.10;;
76604;SDS011;73179;50.978;16.998;2024-03-02T06:38:30;108.97;;;58.97;;
76604;SDS011;73179;50.978;16.998;2024-03-02T06:40:59;105.95;;;53.42;;
76604;SDS011;73179;50.978;16.998;2024-03-02T06:43:25;105.28;;;51.05;;
76604;SDS011;73179;50.978;16.998;2024-03-02T06:45:51;105.28;;;54.08;;
76604;SDS011;73179;50.978;16.998;2024-03-02T06:48:17;97.63;;;50.72;;
76604;SDS011;73179;50.978;16.998;2024-03-02T06:50:48;95.53;;;49.55;;
76604;SDS011;73179;50.978;16.998;2024-03-02T06:53:15;100.47;;;50.45;;
76604;SDS011;73179;50.978;16.998;2024-03-02T06:55:45;103.93;;;51.85;;
76604;SDS011;73179;50.978;16.998;2024-03-02T06:58:12;95.18;;;49.13;;
76604;SDS011;73179;50.978;16.998;2024-03-02T07:00:40;95.05;;;50.38;;
76604;SDS011;73179;50.978;16.998;2024-03-02T07:03:06;93.40;;;49.08;;
76604;SDS011;73179;50.978;16.998;2024-03-02T07:05:32;102.38;;;52.97;;
76604;SDS011;73179;50.978;16.998;2024-03-02T07:07:58;104.10;;;53.45;;
76604;SDS011;73179;50.978;16.998;2024-03-02T07:10:24;100.93;;;53.53;;
76604;SDS011;73179;50.978;16.998;2024-03-02T07:12:50;102.60;;;58.60;;
76604;SDS011;73179;50.978;16.998;2024-03-02T07:15:16;97.78;;;54.17;;
76604;SDS011;73179;50.978;16.998;2024-03-02T07:18:08;95.72;;;53.75;;
76604;SDS011;73179;50.978;16.998;2024-03-02T07:20:34;81.78;;;49.58;;
76604;SDS011;73179;50.978;16.998;2024-03-02T07:23:00;82.20;;;48.80;;
76604;SDS011;73179;50.978;16.998;2024-03-02T07:25:26;87.45;;;51.28;;
76604;SDS011;73179;50.978;16.998;2024-03-02T07:27:53;92.30;;;55.05;;
76604;SDS011;73179;50.978;16.998;2024-03-02T07:30:19;87.28;;;51.95;;
76604;SDS011;73179;50.978;16.998;2024-03-02T07:32:45;83.68;;;52.42;;
76604;SDS011;73179;50.978;16.998;2024-03-02T07:35:12;92.45;;;55.65;;
76604;SDS011;73179;50.978;16.998;2024-03-02T07:37:39;86.00;;;53.20;;
76604;SDS011;73179;50.978;16.998;2024-03-02T07:40:06;89.18;;;56.65;;
76604;SDS011;73179;50.978;16.998;2024-03-02T07:42:39;89.05;;;53.53;;
76604;SDS011;73179;50.978;16.998;2024-03-02T07:45:05;86.43;;;51.70;;
76604;SDS011;73179;50.978;16.998;2024-03-02T07:47:33;85.32;;;50.50;;
76604;SDS011;73179;50.978;16.998;2024-03-02T07:50:02;84.45;;;51.20;;
76604;SDS011;73179;50.978;16.998;2024-03-02T07:52:28;87.55;;;54.65;;
76604;SDS011;73179;50.978;16.998;2024-03-02T07:55:03;89.10;;;53.40;;
76604;SDS011;73179;50.978;16.998;2024-03-02T07:57:31;85.05;;;54.33;;
76604;SDS011;73179;50.978;16.998;2024-03-02T07:59:57;85.65;;;53.00;;
76604;SDS011;73179;50.978;16.998;2024-03-02T08:02:25;88.13;;;54.15;;
76604;SDS011;73179;50.978;16.998;2024-03-02T08:04:50;80.47;;;53.13;;
76604;SDS011;73179;50.978;16.998;2024-03-02T08:07:17;87.05;;;57.03;;
76604;SDS011;73179;50.978;16.998;2024-03-02T08:09:42;86.63;;;56.65;;
76604;SDS011;73179;50.978;16.998;2024-03-02T08:12:09;84.05;;;54.22;;
76604;SDS011;73179;50.978;16.998;2024-03-02T08:14:34;85.00;;;54.33;;
76604;SDS011;73179;50.978;16.998;2024-03-02T08:17:01;80.72;;;53.17;;
76604;SDS011;73179;50.978;16.998;2024-03-02T08:19:27;85.63;;;50.80;;
76604;SDS011;73179;50.978;16.998;2024-03-02T08:21:53;80.70;;;50.67;;
76604;SDS011;73179;50.978;16.998;2024-03-02T08:24:19;73.82;;;49.28;;
76604;SDS011;73179;50.978;16.998;2024-03-02T08:26:45;79.97;;;49.13;;
76604;SDS011;73179;50.978;16.998;2024-03-02T08:29:10;87.68;;;52.78;;
76604;SDS011;73179;50.978;16.998;2024-03-02T08:31:37;75.95;;;53.38;;
76604;SDS011;73179;50.978;16.998;2024-03-02T08:34:03;86.00;;;52.42;;
76604;SDS011;73179;50.978;16.998;2024-03-02T08:36:29;78.43;;;50.10;;
76604;SDS011;73179;50.978;16.998;2024-03-02T08:38:55;72.82;;;45.85;;
76604;SDS011;73179;50.978;16.998;2024-03-02T08:41:21;75.38;;;47.15;;
76604;SDS011;73179;50.978;16.998;2024-03-02T08:43:47;79.35;;;47.58;;
76604;SDS011;73179;50.978;16.998;2024-03-02T08:46:14;72.10;;;43.72;;
76604;SDS011;73179;50.978;16.998;2024-03-02T08:48:39;69.68;;;45.58;;
76604;SDS011;73179;50.978;16.998;2024-03-02T08:51:05;70.72;;;45.92;;
76604;SDS011;73179;50.978;16.998;2024-03-02T08:53:33;68.28;;;43.05;;
76604;SDS011;73179;50.978;16.998;2024-03-02T08:55:59;67.93;;;41.78;;
76604;SDS011;73179;50.978;16.998;2024-03-02T08:58:25;74.93;;;45.67;;
76604;SDS011;73179;50.978;16.998;2024-03-02T09:00:51;68.03;;;40.80;;
76604;SDS011;73179;50.978;16.998;2024-03-02T09:03:17;63.55;;;42.67;;
76604;SDS011;73179;50.978;16.998;2024-03-02T09:05:43;65.57;;;41.65;;
76604;SDS011;73179;50.978;16.998;2024-03-02T09:08:10;66.15;;;41.10;;
76604;SDS011;73179;50.978;16.998;2024-03-02T09:10:36;69.47;;;42.17;;
76604;SDS011;73179;50.978;16.998;2024-03-02T09:13:03;61.22;;;39.33;;
76604;SDS011;73179;50.978;16.998;2024-03-02T09:15:29;63.70;;;42.28;;
76604;SDS011;73179;50.978;16.998;2024-03-02T09:17:55;69.28;;;43.55;;
76604;SDS011;73179;50.978;16.998;2024-03-02T09:20:22;60.33;;;42.35;;
76604;SDS011;73179;50.978;16.998;2024-03-02T09:22:48;61.67;;;38.50;;
76604;SDS011;73179;50.978;16.998;2024-03-02T09:25:14;60.85;;;37.97;;
76604;SDS011;73179;50.978;16.998;2024-03-02T09:27:41;60.10;;;38.00;;
76604;SDS011;73179;50.978;16.998;2024-03-02T09:30:07;58.80;;;38.63;;
76604;SDS011;73179;50.978;16.998;2024-03-02T09:32:34;62.95;;;37.83;;
76604;SDS011;73179;50.978;16.998;2024-03-02T09:35:00;57.55;;;37.03;;
76604;SDS011;73179;50.978;16.998;2024-03-02T09:37:26;56.80;;;38.17;;
76604;SDS011;73179;50.978;16.998;2024-03-02T09:39:52;60.13;;;39.17;;
76604;SDS011;73179;50.978;16.998;2024-03-02T09:42:18;60.40;;;38.92;;
76604;SDS011;73179;50.978;16.998;2024-03-02T09:44:45;63.47;;;37.63;;
76604;SDS011;73179;50.978;16.998;2024-03-02T09:47:11;58.40;;;37.42;;
76604;SDS011;73179;50.978;16.998;2024-03-02T09:49:37;57.10;;;39.22;;
76604;SDS011;73179;50.978;16.998;2024-03-02T09:52:02;54.05;;;35.58;;
76604;SDS011;73179;50.978;16.998;2024-03-02T09:54:30;57.47;;;37.88;;
76604;SDS011;73179;50.978;16.998;2024-03-02T09:56:56;55.97;;;37.72;;
76604;SDS011;73179;50.978;16.998;2024-03-02T09:59:22;60.53;;;38.47;;
76604;SDS011;73179;50.978;16.998;2024-03-02T10:02:09;55.35;;;39.45;;
76604;SDS011;73179;50.978;16.998;2024-03-02T10:04:34;55.97;;;36.67;;
76604;SDS011;73179;50.978;16.998;2024-03-02T10:07:09;61.55;;;40.38;;
76604;SDS011;73179;50.978;16.998;2024-03-02T10:09:41;60.58;;;39.00;;
76604;SDS011;73179;50.978;16.998;2024-03-02T10:12:08;59.60;;;40.72;;
76604;SDS011;73179;50.978;16.998;2024-03-02T10:14:35;55.67;;;39.60;;
76604;SDS011;73179;50.978;16.998;2024-03-02T10:17:03;60.40;;;38.42;;
76604;SDS011;73179;50.978;16.998;2024-03-02T10:19:30;55.67;;;37.00;;
76604;SDS011;73179;50.978;16.998;2024-03-02T10:22:03;58.17;;;36.72;;
76604;SDS011;73179;50.978;16.998;2024-03-02T10:27:37;51.78;;;36.47;;
76604;SDS011;73179;50.978;16.998;2024-03-02T10:30:03;54.00;;;37.67;;
76604;SDS011;73179;50.978;16.998;2024-03-02T10:32:31;52.17;;;36.72;;
76604;SDS011;73179;50.978;16.998;2024-03-02T10:34:57;49.88;;;34.80;;
76604;SDS011;73179;50.978;16.998;2024-03-02T10:37:23;44.80;;;32.40;;
76604;SDS011;73179;50.978;16.998;2024-03-02T10:39:50;50.05;;;34.45;;
76604;SDS011;73179;50.978;16.998;2024-03-02T10:42:17;46.13;;;33.00;;
76604;SDS011;73179;50.978;16.998;2024-03-02T10:44:45;40.40;;;31.17;;
76604;SDS011;73179;50.978;16.998;2024-03-02T10:47:12;43.63;;;31.23;;
76604;SDS011;73179;50.978;16.998;2024-03-02T10:49:40;43.17;;;30.88;;
76604;SDS011;73179;50.978;16.998;2024-03-02T10:52:08;47.92;;;32.50;;
76604;SDS011;73179;50.978;16.998;2024-03-02T10:54:35;42.42;;;31.63;;
76604;SDS011;73179;50.978;16.998;2024-03-02T10:57:05;45.40;;;35.83;;
76604;SDS011;73179;50.978;16.998;2024-03-02T10:59:35;49.03;;;32.20;;
76604;SDS011;73179;50.978;16.998;2024-03-02T11:02:04;47.20;;;31.27;;
76604;SDS011;73179;50.978;16.998;2024-03-02T11:04:32;50.72;;;35.50;;
76604;SDS011;73179;50.978;16.998;2024-03-02T11:07:02;48.22;;;34.90;;
76604;SDS011;73179;50.978;16.998;2024-03-02T11:09:33;48.08;;;32.45;;
76604;SDS011;73179;50.978;16.998;2024-03-02T11:14:44;52.63;;;33.30;;
76604;SDS011;73179;50.978;16.998;2024-03-02T11:17:10;47.17;;;32.60;;
76604;SDS011;73179;50.978;16.998;2024-03-02T11:19:39;49.28;;;36.22;;
76604;SDS011;73179;50.978;16.998;2024-03-02T11:22:06;47.38;;;32.78;;
76604;SDS011;73179;50.978;16.998;2024-03-02T11:24:33;42.88;;;34.10;;
76604;SDS011;73179;50.978;16.998;2024-03-02T11:27:00;43.55;;;31.33;;
76604;SDS011;73179;50.978;16.998;2024-03-02T11:32:17;43.33;;;29.98;;
76604;SDS011;73179;50.978;16.998;2024-03-02T11:34:47;41.47;;;29.85;;
76604;SDS011;73179;50.978;16.998;2024-03-02T11:37:18;42.03;;;29.67;;
76604;SDS011;73179;50.978;16.998;2024-03-02T11:39:46;40.53;;;29.38;;
76604;SDS011;73179;50.978;16.998;2024-03-02T11:42:15;42.83;;;29.38;;
76604;SDS011;73179;50.978;16.998;2024-03-02T11:44:45;37.65;;;27.98;;
76604;SDS011;73179;50.978;16.998;2024-03-02T11:47:12;38.72;;;28.60;;
76604;SDS011;73179;50.978;16.998;2024-03-02T11:49:44;39.10;;;28.63;;
76604;SDS011;73179;50.978;16.998;2024-03-02T11:52:11;37.15;;;27.40;;
76604;SDS011;73179;50.978;16.998;2024-03-02T11:54:39;38.65;;;26.85;;
76604;SDS011;73179;50.978;16.998;2024-03-02T11:57:07;35.90;;;25.85;;
76604;SDS011;73179;50.978;16.998;2024-03-02T11:59:34;34.45;;;25.65;;
76604;SDS011;73179;50.978;16.998;2024-03-02T12:02:00;33.13;;;23.52;;
76604;SDS011;73179;50.978;16.998;2024-03-02T12:04:26;31.52;;;21.95;;
76604;SDS011;73179;50.978;16.998;2024-03-02T12:06:58;36.97;;;24.63;;
76604;SDS011;73179;50.978;16.998;2024-03-02T12:09:28;32.88;;;23.88;;
76604;SDS011;73179;50.978;16.998;2024-03-02T12:12:01;30.30;;;20.75;;
76604;SDS011;73179;50.978;16.998;2024-03-02T12:14:35;27.27;;;19.80;;
76604;SDS011;73179;50.978;16.998;2024-03-02T12:17:02;26.52;;;21.13;;
76604;SDS011;73179;50.978;16.998;2024-03-02T12:19:29;31.40;;;22.40;;
76604;SDS011;73179;50.978;16.998;2024-03-02T12:21:56;28.77;;;20.27;;
76604;SDS011;73179;50.978;16.998;2024-03-02T12:24:23;31.27;;;22.35;;
76604;SDS011;73179;50.978;16.998;2024-03-02T12:26:53;28.20;;;21.40;;
76604;SDS011;73179;50.978;16.998;2024-03-02T12:29:20;30.42;;;21.08;;
76604;SDS011;73179;50.978;16.998;2024-03-02T12:31:50;35.55;;;27.45;;
76604;SDS011;73179;50.978;16.998;2024-03-02T12:34:21;32.22;;;24.52;;
76604;SDS011;73179;50.978;16.998;2024-03-02T12:36:48;33.08;;;23.15;;
76604;SDS011;73179;50.978;16.998;2024-03-02T12:39:18;32.28;;;24.02;;
76604;SDS011;73179;50.978;16.998;2024-03-02T12:41:45;33.47;;;21.83;;
76604;SDS011;73179;50.978;16.998;2024-03-02T12:44:12;33.25;;;22.55;;
76604;SDS011;73179;50.978;16.998;2024-03-02T12:46:38;33.35;;;25.90;;
76604;SDS011;73179;50.978;16.998;2024-03-02T12:49:07;33.50;;;22.90;;
76604;SDS011;73179;50.978;16.998;2024-03-02T12:51:35;30.40;;;23.08;;
76604;SDS011;73179;50.978;16.998;2024-03-02T12:54:01;32.38;;;25.20;;
76604;SDS011;73179;50.978;16.998;2024-03-02T12:56:28;33.67;;;25.83;;
76604;SDS011;73179;50.978;16.998;2024-03-02T12:58:55;33.67;;;25.70;;
76604;SDS011;73179;50.978;16.998;2024-03-02T13:01:21;37.90;;;26.33;;
76604;SDS011;73179;50.978;16.998;2024-03-02T13:03:48;32.00;;;25.05;;
76604;SDS011;73179;50.978;16.998;2024-03-02T13:06:16;36.40;;;24.58;;
76604;SDS011;73179;50.978;16.998;2024-03-02T13:08:43;34.45;;;24.98;;
76604;SDS011;73179;50.978;16.998;2024-03-02T13:11:10;33.55;;;25.70;;
76604;SDS011;73179;50.978;16.998;2024-03-02T13:13:36;38.65;;;24.67;;
76604;SDS011;73179;50.978;16.998;2024-03-02T13:16:03;35.13;;;26.25;;
76604;SDS011;73179;50.978;16.998;2024-03-02T13:18:33;33.53;;;23.30;;
76604;SDS011;73179;50.978;16.998;2024-03-02T13:20:59;30.05;;;23.67;;
76604;SDS011;73179;50.978;16.998;2024-03-02T13:23:25;30.42;;;24.08;;
76604;SDS011;73179;50.978;16.998;2024-03-02T13:25:50;31.50;;;24.38;;
76604;SDS011;73179;50.978;16.998;2024-03-02T13:28:16;31.48;;;25.45;;
76604;SDS011;73179;50.978;16.998;2024-03-02T13:30:43;31.70;;;21.95;;
76604;SDS011;73179;50.978;16.998;2024-03-02T13:33:08;33.60;;;24.48;;
76604;SDS011;73179;50.978;16.998;2024-03-02T13:35:34;32.58;;;24.35;;
76604;SDS011;73179;50.978;16.998;2024-03-02T13:38:00;32.15;;;25.15;;
76604;SDS011;73179;50.978;16.998;2024-03-02T13:40:26;36.42;;;23.35;;
76604;SDS011;73179;50.978;16.998;2024-03-02T13:42:53;34.90;;;23.83;;
76604;SDS011;73179;50.978;16.998;2024-03-02T13:45:19;32.88;;;24.00;;
76604;SDS011;73179;50.978;16.998;2024-03-02T13:47:45;32.80;;;23.65;;
76604;SDS011;73179;50.978;16.998;2024-03-02T13:50:11;37.60;;;24.30;;
76604;SDS011;73179;50.978;16.998;2024-03-02T13:52:37;34.90;;;23.58;;
76604;SDS011;73179;50.978;16.998;2024-03-02T13:55:02;35.50;;;24.00;;
76604;SDS011;73179;50.978;16.998;2024-03-02T13:57:28;37.65;;;25.67;;
76604;SDS011;73179;50.978;16.998;2024-03-02T13:59:55;40.35;;;24.55;;
76604;SDS011;73179;50.978;16.998;2024-03-02T14:02:21;31.63;;;23.60;;
76604;SDS011;73179;50.978;16.998;2024-03-02T14:04:48;33.83;;;23.55;;
76604;SDS011;73179;50.978;16.998;2024-03-02T14:07:14;35.63;;;24.33;;
76604;SDS011;73179;50.978;16.998;2024-03-02T14:09:40;35.83;;;25.77;;
76604;SDS011;73179;50.978;16.998;2024-03-02T14:12:06;34.35;;;25.77;;
76604;SDS011;73179;50.978;16.998;2024-03-02T14:14:32;38.15;;;24.10;;
76604;SDS011;73179;50.978;16.998;2024-03-02T14:16:59;31.88;;;24.10;;